createdAt,value
2022-12-19T00:02:12.744Z,81.96
2022-12-19T00:04:39.686Z,81.43
2022-12-19T00:07:07.834Z,82.15
2022-12-19T00:09:35.805Z,81.65
2022-12-19T00:12:04.003Z,81.71
2022-12-19T00:14:32.030Z,81.94
2022-12-19T00:19:55.793Z,82.12
2022-12-19T00:22:28.784Z,81.88
2022-12-19T00:25:20.363Z,81.81
2022-12-19T00:27:47.682Z,81.86
2022-12-19T00:30:19.921Z,81.95
2022-12-19T00:32:47.689Z,81.95
2022-12-19T00:35:15.925Z,82.06
2022-12-19T00:37:45.472Z,82.00
2022-12-19T00:40:41.690Z,82.02
2022-12-19T00:43:09.695Z,81.91
2022-12-19T00:45:38.371Z,82.02
2022-12-19T00:48:05.966Z,82.12
2022-12-19T00:50:35.742Z,82.08
2022-12-19T00:56:37.831Z,81.89
2022-12-19T00:59:12.853Z,81.96
2022-12-19T01:01:41.526Z,81.73
2022-12-19T01:04:30.349Z,82.04
2022-12-19T01:07:02.174Z,82.04
2022-12-19T01:09:36.943Z,81.94
2022-12-19T01:15:23.672Z,82.01
2022-12-19T01:17:51.836Z,81.97
2022-12-19T01:20:49.215Z,81.83
2022-12-19T01:23:17.721Z,81.36
2022-12-19T01:25:52.411Z,81.74
2022-12-19T01:28:45.852Z,81.49
2022-12-19T01:31:14.010Z,81.58
2022-12-19T01:33:43.921Z,82.02
2022-12-19T01:36:13.733Z,81.64
2022-12-19T01:38:41.974Z,81.48
2022-12-19T01:44:07.995Z,81.61
2022-12-19T01:46:40.942Z,81.90
2022-12-19T01:49:15.859Z,81.96
2022-12-19T01:51:47.976Z,81.97
2022-12-19T01:54:22.435Z,81.70
2022-12-19T01:56:58.810Z,81.86
2022-12-19T01:59:52.499Z,81.96
2022-12-19T02:02:30.992Z,81.76
2022-12-19T02:05:01.611Z,81.71
2022-12-19T02:07:30.919Z,81.75
2022-12-19T02:10:00.070Z,81.87
2022-12-19T02:12:44.686Z,81.76
2022-12-19T02:15:18.744Z,81.94
2022-12-19T02:18:18.771Z,82.03
2022-12-19T02:20:56.663Z,81.64
2022-12-19T02:23:51.507Z,82.09
2022-12-19T02:30:04.552Z,81.44
2022-12-19T02:32:48.003Z,81.02
2022-12-19T02:35:40.580Z,81.72
2022-12-19T02:38:25.981Z,81.42
2022-12-19T02:46:57.584Z,82.08
2022-12-19T02:49:31.023Z,82.21
2022-12-19T02:52:37.772Z,81.99
2022-12-19T02:55:16.782Z,81.48
2022-12-19T02:57:51.680Z,82.25
2022-12-19T03:00:25.771Z,82.64
2022-12-19T03:03:26.106Z,83.23
2022-12-19T03:05:58.676Z,83.05
2022-12-19T03:08:36.439Z,83.48
2022-12-19T03:11:13.385Z,83.66
2022-12-19T03:14:05.639Z,83.57
2022-12-19T03:16:37.575Z,83.59
2022-12-19T03:19:13.018Z,83.79
2022-12-19T03:21:43.562Z,84.05
2022-12-19T03:24:13.764Z,84.26
2022-12-19T03:26:48.962Z,84.27
2022-12-19T03:29:29.157Z,84.23
2022-12-19T03:32:01.396Z,84.58
2022-12-19T03:34:40.328Z,84.87
2022-12-19T03:37:14.773Z,84.96
2022-12-19T03:39:55.954Z,85.16
2022-12-19T03:42:44.262Z,84.86
2022-12-19T03:45:16.810Z,85.20
2022-12-19T03:48:03.736Z,85.11
2022-12-19T03:53:47.034Z,85.29
2022-12-19T03:59:44.727Z,85.40
2022-12-19T04:02:15.072Z,85.57
2022-12-19T04:04:46.665Z,85.52
2022-12-19T04:07:20.695Z,85.86
2022-12-19T04:09:49.197Z,85.66
2022-12-19T04:12:55.584Z,85.67
2022-12-19T04:16:30.808Z,85.58
2022-12-19T04:19:19.616Z,85.51
2022-12-19T04:22:05.843Z,85.51
2022-12-19T04:24:37.529Z,85.21
2022-12-19T04:27:08.355Z,85.57
2022-12-19T04:29:37.969Z,85.42
2022-12-19T04:32:08.389Z,85.27
2022-12-19T04:37:53.767Z,85.34
2022-12-19T04:40:21.813Z,85.65
2022-12-19T04:42:49.745Z,85.56
2022-12-19T04:48:12.101Z,85.32
2022-12-19T04:50:41.357Z,85.51
2022-12-19T04:53:10.092Z,85.57
2022-12-19T04:55:41.068Z,85.37
2022-12-19T04:58:18.959Z,85.60
2022-12-19T05:01:19.352Z,85.51
2022-12-19T05:03:55.765Z,85.70
2022-12-19T05:06:25.730Z,85.67
2022-12-19T05:08:53.739Z,85.98
2022-12-19T05:11:21.759Z,85.86
2022-12-19T05:14:15.901Z,85.82
2022-12-19T05:16:43.718Z,85.87
2022-12-19T05:19:36.256Z,86.17
2022-12-19T05:22:04.104Z,85.91
2022-12-19T05:24:31.792Z,86.10
2022-12-19T05:26:59.700Z,85.84
2022-12-19T05:29:27.706Z,86.23
2022-12-19T05:31:55.701Z,86.40
2022-12-19T05:34:24.710Z,86.47
2022-12-19T05:36:56.779Z,86.52
2022-12-19T05:39:23.731Z,86.76
2022-12-19T05:41:51.699Z,86.88
2022-12-19T05:44:24.757Z,86.89
2022-12-19T05:52:39.958Z,86.94
2022-12-19T05:55:13.551Z,86.99
2022-12-19T05:57:41.690Z,87.25
2022-12-19T06:00:10.261Z,87.19
2022-12-19T06:02:40.132Z,87.25
2022-12-19T06:05:13.962Z,87.04
2022-12-19T06:07:41.699Z,87.22
2022-12-19T06:10:10.488Z,87.18
2022-12-19T06:12:37.769Z,87.07
2022-12-19T06:15:06.257Z,86.98
2022-12-19T06:20:31.715Z,87.29
2022-12-19T06:22:59.717Z,87.17
2022-12-19T06:25:27.865Z,87.54
2022-12-19T06:27:55.707Z,87.55
2022-12-19T06:30:23.695Z,87.52
2022-12-19T06:32:51.733Z,87.72
2022-12-19T06:35:23.707Z,88.05
2022-12-19T06:37:52.942Z,87.81
2022-12-19T06:40:42.697Z,88.20
2022-12-19T06:43:09.717Z,88.13
2022-12-19T06:45:41.742Z,88.33
2022-12-19T06:48:09.744Z,88.39
2022-12-19T06:50:42.730Z,88.62
2022-12-19T06:53:14.776Z,88.10
2022-12-19T06:55:45.812Z,88.17
2022-12-19T06:58:23.979Z,88.21
2022-12-19T07:00:53.325Z,88.51
2022-12-19T07:03:34.938Z,88.56
2022-12-19T07:06:02.578Z,88.42
2022-12-19T07:08:35.758Z,88.27
2022-12-19T07:11:27.711Z,88.22
2022-12-19T07:13:55.713Z,88.42
2022-12-19T07:16:25.565Z,88.58
2022-12-19T07:19:18.328Z,88.64
2022-12-19T07:21:50.837Z,88.90
2022-12-19T07:24:17.891Z,88.71
2022-12-19T07:26:45.923Z,88.53
2022-12-19T07:29:14.233Z,88.45
2022-12-19T07:31:46.876Z,88.60
2022-12-19T07:34:13.724Z,88.44
2022-12-19T07:39:38.746Z,88.53
2022-12-19T07:42:07.261Z,88.49
2022-12-19T07:44:41.016Z,88.74
2022-12-19T07:47:11.498Z,88.88
2022-12-19T07:55:23.948Z,89.30
2022-12-19T07:57:51.799Z,89.34
2022-12-19T08:00:24.848Z,89.51
2022-12-19T08:02:51.894Z,89.79
2022-12-19T08:05:23.701Z,90.15
2022-12-19T08:07:55.722Z,90.02
2022-12-19T08:10:27.790Z,90.24
2022-12-19T08:13:00.746Z,90.46
2022-12-19T08:15:27.707Z,90.03
2022-12-19T08:17:59.870Z,90.37
2022-12-19T08:26:47.555Z,90.95
2022-12-19T08:29:24.903Z,91.24
2022-12-19T08:32:21.223Z,91.18
2022-12-19T08:37:41.776Z,91.16
2022-12-19T08:40:10.115Z,91.26
2022-12-19T08:42:42.757Z,91.47
2022-12-19T08:45:09.875Z,91.97
2022-12-19T08:47:37.741Z,91.78
2022-12-19T08:50:06.119Z,91.87
2022-12-19T08:52:38.714Z,91.45
2022-12-19T08:55:06.255Z,91.59
2022-12-19T08:57:33.769Z,91.58
2022-12-19T09:00:02.700Z,91.97
2022-12-19T09:02:31.919Z,91.53
2022-12-19T09:05:58.414Z,91.44
2022-12-19T09:07:47.708Z,91.84
2022-12-19T09:10:15.780Z,91.86
2022-12-19T09:12:43.721Z,91.71
2022-12-19T09:15:11.889Z,92.20
2022-12-19T09:17:39.919Z,92.10
2022-12-19T09:20:08.270Z,92.45
2022-12-19T09:22:35.803Z,92.07
2022-12-19T09:25:03.983Z,91.93
2022-12-19T09:28:26.280Z,92.09
2022-12-19T09:31:02.600Z,92.27
2022-12-19T09:33:33.048Z,92.28
2022-12-19T09:36:11.670Z,92.50
2022-12-19T09:38:39.800Z,92.33
2022-12-19T09:41:16.901Z,92.58
2022-12-19T09:44:11.910Z,92.63
2022-12-19T09:46:59.538Z,92.79
2022-12-19T09:49:41.982Z,92.75
2022-12-19T09:52:36.157Z,92.72
2022-12-19T09:55:13.716Z,92.66
2022-12-19T09:57:47.554Z,92.48
2022-12-19T10:00:21.162Z,92.64
2022-12-19T10:03:24.000Z,92.73
2022-12-19T10:06:59.949Z,92.86
2022-12-19T10:10:03.987Z,93.08
2022-12-19T10:12:46.214Z,93.09
2022-12-19T10:15:12.554Z,93.03
2022-12-19T10:21:13.006Z,93.27
2022-12-19T10:24:00.935Z,93.36
2022-12-19T10:26:48.951Z,93.47
2022-12-19T10:29:29.659Z,93.65
2022-12-19T10:32:14.518Z,93.85
2022-12-19T10:34:44.144Z,93.97
2022-12-19T10:40:34.643Z,93.77
2022-12-19T10:43:18.237Z,93.73
2022-12-19T10:46:30.207Z,93.79
2022-12-19T10:48:57.725Z,93.85
2022-12-19T10:54:48.830Z,93.75
2022-12-19T10:57:21.683Z,93.72
2022-12-19T11:00:15.469Z,93.89
2022-12-19T11:02:47.071Z,93.89
2022-12-19T11:05:26.470Z,93.91
2022-12-19T11:13:25.840Z,93.90
2022-12-19T11:19:23.552Z,94.21
2022-12-19T11:23:49.077Z,94.03
2022-12-19T11:29:19.482Z,93.96
2022-12-19T11:29:37.372Z,93.90
2022-12-19T11:30:44.126Z,93.89
2022-12-19T11:30:45.502Z,93.88
2022-12-19T11:34:35.635Z,94.22
2022-12-19T11:37:20.979Z,94.34
2022-12-19T11:39:52.911Z,94.28
2022-12-19T11:42:28.284Z,94.31
2022-12-19T11:45:41.716Z,94.27
2022-12-19T11:48:38.688Z,94.32
2022-12-19T11:51:36.361Z,94.05
2022-12-19T11:54:32.328Z,93.97
2022-12-19T11:57:26.635Z,94.26
2022-12-19T11:59:56.452Z,94.27
2022-12-19T12:02:52.290Z,94.07
2022-12-19T12:05:30.278Z,94.44
2022-12-19T12:10:10.249Z,94.57
2022-12-19T12:15:42.253Z,94.32
2022-12-19T12:21:31.537Z,94.49
2022-12-19T12:31:27.785Z,94.32
2022-12-19T12:31:44.955Z,94.20
2022-12-19T12:31:51.726Z,94.36
2022-12-19T12:31:52.738Z,94.23
2022-12-19T12:35:52.122Z,94.50
2022-12-19T12:41:00.529Z,94.68
2022-12-19T12:44:11.530Z,94.56
2022-12-19T12:46:51.200Z,94.42
2022-12-19T12:49:42.607Z,94.48
2022-12-19T12:52:41.138Z,94.70
2022-12-19T12:55:42.347Z,94.81
2022-12-19T12:59:02.117Z,94.93
2022-12-19T13:01:45.857Z,94.82
2022-12-19T13:04:13.670Z,94.77
2022-12-19T13:07:03.506Z,94.73
2022-12-19T13:09:36.559Z,94.61
2022-12-19T13:12:42.843Z,94.79
2022-12-19T13:15:39.506Z,94.71
2022-12-19T13:18:09.664Z,94.59
2022-12-19T13:21:09.693Z,94.84
2022-12-19T13:23:37.693Z,94.81
2022-12-19T13:26:20.652Z,94.71
2022-12-19T13:28:52.756Z,94.70
2022-12-19T13:31:22.867Z,94.64
2022-12-19T13:33:51.846Z,94.93
2022-12-19T13:40:02.200Z,95.05
2022-12-19T13:40:08.923Z,94.98
2022-12-19T13:43:10.576Z,94.91
2022-12-19T13:45:41.818Z,94.83
2022-12-19T13:48:25.655Z,94.83
2022-12-19T13:53:59.301Z,94.82
2022-12-19T13:56:30.442Z,94.77
2022-12-19T13:59:04.223Z,94.62
2022-12-19T14:06:17.831Z,94.88
2022-12-19T14:08:22.984Z,94.93
2022-12-19T14:11:39.910Z,94.80
2022-12-19T14:14:12.796Z,94.87
2022-12-19T14:16:50.296Z,94.88
2022-12-19T14:19:23.591Z,94.81
2022-12-19T14:28:15.196Z,95.20
2022-12-19T14:28:25.550Z,95.19
2022-12-19T14:31:02.215Z,95.15
2022-12-19T14:34:04.341Z,95.19
2022-12-19T14:36:57.998Z,95.26
2022-12-19T14:39:31.335Z,95.30
2022-12-19T14:43:58.048Z,95.13
2022-12-19T14:54:07.518Z,95.09
2022-12-19T14:54:10.031Z,95.12
2022-12-19T14:54:21.295Z,95.03
2022-12-19T14:56:00.427Z,95.03
2022-12-19T14:58:56.286Z,95.15
2022-12-19T15:01:32.428Z,95.41
2022-12-19T15:04:47.856Z,95.48
2022-12-19T15:07:09.922Z,95.81
2022-12-19T15:11:05.009Z,95.83
2022-12-19T15:14:55.121Z,95.89
2022-12-19T15:16:25.730Z,95.96
2022-12-19T15:19:17.753Z,96.11
2022-12-19T15:21:46.107Z,96.18
2022-12-19T15:27:05.736Z,96.16
2022-12-19T15:29:34.223Z,96.05
2022-12-19T15:32:02.032Z,96.06
2022-12-19T15:34:38.025Z,96.06
2022-12-19T15:37:12.404Z,96.06
2022-12-19T15:39:40.871Z,96.28
2022-12-19T15:42:18.655Z,96.35
2022-12-19T15:44:47.672Z,96.31
2022-12-19T15:47:19.809Z,96.34
2022-12-19T15:49:52.807Z,96.27
2022-12-19T15:52:26.268Z,96.28
2022-12-19T15:54:56.608Z,96.33
2022-12-19T15:57:37.330Z,96.31
2022-12-19T16:00:19.142Z,96.23
2022-12-19T16:05:46.212Z,96.38
2022-12-19T16:08:39.959Z,96.42
2022-12-19T16:11:18.504Z,96.55
2022-12-19T16:13:56.721Z,96.60
2022-12-19T16:16:23.806Z,96.58
2022-12-19T16:18:51.738Z,96.62
2022-12-19T16:21:31.263Z,96.50
2022-12-19T16:24:06.073Z,96.42
2022-12-19T16:26:37.621Z,96.58
2022-12-19T16:29:18.137Z,96.44
2022-12-19T16:31:45.794Z,96.48
2022-12-19T16:34:16.436Z,96.49
2022-12-19T16:36:50.136Z,96.36
2022-12-19T16:39:43.970Z,96.33
2022-12-19T16:42:17.011Z,96.33
2022-12-19T16:44:47.003Z,96.22
2022-12-19T16:47:19.804Z,96.16
2022-12-19T16:49:52.767Z,96.25
2022-12-19T16:52:19.809Z,96.25
2022-12-19T16:54:47.852Z,96.22
2022-12-19T16:57:21.453Z,96.21
2022-12-19T16:59:50.746Z,96.28
2022-12-19T17:02:50.404Z,96.25
2022-12-19T17:05:30.193Z,96.35
2022-12-19T17:07:58.616Z,96.44
2022-12-19T17:10:33.806Z,96.44
2022-12-19T17:13:08.277Z,96.47
2022-12-19T17:15:38.681Z,96.26
2022-12-19T17:18:20.218Z,96.42
2022-12-19T17:20:52.824Z,96.40
2022-12-19T17:23:22.143Z,96.62
2022-12-19T17:25:50.453Z,96.57
2022-12-19T17:28:18.066Z,96.44
2022-12-19T17:30:57.368Z,96.46
2022-12-19T17:33:50.156Z,96.36
2022-12-19T17:36:23.040Z,96.40
2022-12-19T17:38:51.869Z,96.24
2022-12-19T17:41:45.220Z,96.12
2022-12-19T17:44:13.824Z,96.17
2022-12-19T17:47:05.755Z,96.12
2022-12-19T17:49:33.897Z,96.09
2022-12-19T17:52:01.753Z,95.97
2022-12-19T17:54:30.580Z,95.86
2022-12-19T17:57:22.554Z,95.95
2022-12-19T17:59:49.766Z,96.07
2022-12-19T18:02:24.023Z,96.07
2022-12-19T18:04:52.609Z,95.84
2022-12-19T18:07:19.894Z,95.90
2022-12-19T18:09:47.751Z,95.90
2022-12-19T18:12:15.961Z,95.88
2022-12-19T18:14:43.728Z,95.78
2022-12-19T18:17:13.616Z,95.77
2022-12-19T18:19:46.764Z,95.83
2022-12-19T18:22:39.696Z,95.80
2022-12-19T18:25:19.923Z,95.69
2022-12-19T18:27:52.594Z,95.80
2022-12-19T18:30:26.891Z,95.90
2022-12-19T18:32:57.453Z,96.09
2022-12-19T18:35:36.344Z,95.94
2022-12-19T18:38:27.733Z,95.73
2022-12-19T18:40:55.737Z,95.63
2022-12-19T18:43:23.933Z,95.62
2022-12-19T18:45:55.839Z,95.63
2022-12-19T18:48:26.829Z,95.58
2022-12-19T18:50:55.244Z,95.62
2022-12-19T18:53:32.796Z,95.65
2022-12-19T18:56:02.696Z,95.73
2022-12-19T18:58:29.869Z,95.75
2022-12-19T19:00:59.791Z,95.75
2022-12-19T19:03:31.256Z,95.55
2022-12-19T19:06:00.361Z,95.48
2022-12-19T19:08:30.507Z,95.54
2022-12-19T19:14:17.870Z,95.39
2022-12-19T19:16:49.822Z,95.40
2022-12-19T19:19:23.710Z,95.31
2022-12-19T19:21:51.764Z,95.32
2022-12-19T19:24:22.344Z,95.17
2022-12-19T19:26:55.790Z,95.21
2022-12-19T19:29:23.968Z,95.07
2022-12-19T19:31:52.888Z,95.08
2022-12-19T19:34:31.003Z,95.12
2022-12-19T19:37:02.202Z,95.04
2022-12-19T19:39:37.866Z,95.14
2022-12-19T19:42:06.018Z,95.26
2022-12-19T19:44:33.974Z,95.15
2022-12-19T19:47:05.721Z,95.24
2022-12-19T19:49:59.448Z,95.21
2022-12-19T19:52:27.804Z,95.31
2022-12-19T19:55:19.883Z,95.32
2022-12-19T19:57:48.022Z,95.16
2022-12-19T20:00:22.403Z,95.02
2022-12-19T20:03:20.502Z,95.10
2022-12-19T20:05:50.255Z,95.11
2022-12-19T20:08:17.755Z,94.91
2022-12-19T20:10:45.730Z,94.93
2022-12-19T20:13:18.728Z,94.97
2022-12-19T20:15:49.766Z,94.98
2022-12-19T20:18:18.297Z,94.82
2022-12-19T20:20:47.690Z,94.74
2022-12-19T20:23:19.741Z,94.76
2022-12-19T20:25:47.786Z,94.71
2022-12-19T20:28:17.780Z,94.68
2022-12-19T20:30:45.828Z,94.54
2022-12-19T20:33:13.781Z,94.41
2022-12-19T20:35:42.946Z,94.35
2022-12-19T20:38:10.100Z,94.27
2022-12-19T20:40:37.715Z,94.17
2022-12-19T20:43:06.133Z,94.12
2022-12-19T20:45:34.376Z,94.07
2022-12-19T20:48:07.142Z,94.02
2022-12-19T20:50:41.233Z,94.04
2022-12-19T20:53:09.876Z,93.96
2022-12-19T20:58:32.146Z,93.83
2022-12-19T21:01:09.280Z,93.90
2022-12-19T21:03:38.499Z,93.91
2022-12-19T21:06:07.245Z,93.81
2022-12-19T21:08:40.059Z,93.86
2022-12-19T21:11:14.246Z,93.66
2022-12-19T21:13:42.203Z,93.62
2022-12-19T21:16:13.526Z,93.52
2022-12-19T21:18:43.348Z,93.68
2022-12-19T21:21:17.991Z,93.58
2022-12-19T21:23:46.659Z,93.49
2022-12-19T21:26:13.867Z,93.51
2022-12-19T21:28:41.991Z,93.45
2022-12-19T21:31:24.710Z,93.41
2022-12-19T21:33:54.823Z,93.53
2022-12-19T21:39:39.871Z,93.33
2022-12-19T21:42:07.928Z,93.05
2022-12-19T21:44:40.848Z,93.04
2022-12-19T21:47:07.796Z,93.20
2022-12-19T21:49:35.692Z,93.04
2022-12-19T21:52:03.875Z,92.92
2022-12-19T21:54:32.052Z,92.89
2022-12-19T21:57:05.109Z,92.97
2022-12-19T21:59:31.783Z,92.85
2022-12-19T22:02:00.070Z,92.81
2022-12-19T22:04:27.861Z,92.69
2022-12-19T22:06:55.910Z,92.65
2022-12-19T22:09:28.830Z,92.65
2022-12-19T22:17:39.685Z,92.65
2022-12-19T22:20:45.421Z,92.57
2022-12-19T22:23:13.869Z,92.61
2022-12-19T22:25:41.718Z,92.46
2022-12-19T22:28:09.728Z,92.37
2022-12-19T22:33:29.962Z,92.51
2022-12-19T22:36:05.556Z,92.86
2022-12-19T22:38:33.743Z,92.67
2022-12-19T22:41:05.594Z,92.70
2022-12-19T22:43:40.403Z,92.96
2022-12-19T22:46:18.018Z,92.85
2022-12-19T22:48:47.137Z,92.68
2022-12-19T22:51:15.004Z,92.53
2022-12-19T22:53:42.456Z,92.58
2022-12-19T22:56:15.552Z,92.75
2022-12-19T22:58:46.183Z,92.66
2022-12-19T23:01:25.840Z,92.48
2022-12-19T23:03:56.327Z,92.40
2022-12-19T23:06:26.268Z,92.28
2022-12-19T23:09:18.767Z,92.38
2022-12-19T23:11:48.931Z,92.31
2022-12-19T23:14:17.859Z,92.37
2022-12-19T23:16:46.316Z,92.31
2022-12-19T23:19:18.010Z,92.34
2022-12-19T23:21:51.796Z,92.31
2022-12-19T23:24:19.828Z,92.39
2022-12-19T23:29:39.686Z,92.80
2022-12-19T23:32:32.081Z,92.64
2022-12-19T23:34:59.886Z,92.93
2022-12-19T23:40:19.813Z,92.70
2022-12-19T23:43:12.780Z,92.78
2022-12-19T23:45:43.499Z,92.64
2022-12-19T23:48:18.828Z,92.66
2022-12-19T23:50:57.274Z,92.59
2022-12-19T23:53:25.902Z,92.61
2022-12-19T23:56:23.604Z,92.61
2022-12-19T23:58:57.677Z,92.50
